Time;durP1;ratioP1;P1;durP2;ratioP2;P2;SDS_P1;SDS_P2;PMS_P1;PMS_P2;Temp;Humidity;BMP_temperature;BMP_pressure;BME280_temperature;BME280_humidity;BME280_pressure;Samples;Min_cycle;Max_cycle;Signal;HPM_P1;HPM_P2
2022/07/17 00:01:06;;;;;;;3.67;2.30;;;;;;;24.78;46.70;101074.78;5087841;28;20672;-60
2022/07/17 00:03:32;;;;;;;6.10;3.10;;;;;;;24.78;46.34;101071.88;5071699;28;20609;-60
2022/07/17 00:05:57;;;;;;;4.17;2.80;;;;;;;24.77;46.75;101070.22;5068563;28;20211;-60
2022/07/17 00:08:23;;;;;;;6.60;2.60;;;;;;;24.77;46.24;101078.91;5069588;28;20226;-60
2022/07/17 00:10:48;;;;;;;3.60;2.50;;;;;;;24.77;46.50;101080.94;5069336;28;20292;-59
2022/07/17 00:13:13;;;;;;;8.10;2.40;;;;;;;24.74;45.75;101073.91;5069528;28;20537;-59
2022/07/17 00:15:39;;;;;;;4.37;2.70;;;;;;;24.71;45.97;101068.13;5069336;28;20178;-59
2022/07/17 00:18:06;;;;;;;3.57;2.47;;;;;;;24.69;45.84;101065.63;5069527;28;20186;-59
2022/07/17 00:20:31;;;;;;;3.60;2.60;;;;;;;24.69;45.81;101068.53;5069379;28;20236;-60
2022/07/17 00:22:57;;;;;;;3.97;2.57;;;;;;;24.67;45.81;101068.13;5069307;28;20429;-60
2022/07/17 00:25:23;;;;;;;5.40;2.60;;;;;;;24.67;45.74;101062.34;5069185;28;20697;-60
2022/07/17 00:27:48;;;;;;;4.53;2.40;;;;;;;24.67;45.65;101078.84;5081740;28;20428;-60
2022/07/17 00:30:14;;;;;;;7.80;2.40;;;;;;;24.66;45.66;101075.13;5087250;28;20189;-60
2022/07/17 00:32:40;;;;;;;4.87;2.53;;;;;;;24.66;46.07;101077.19;5087372;28;20178;-60
2022/07/17 00:35:07;;;;;;;7.43;2.60;;;;;;;24.65;45.76;101072.63;5087464;28;20622;-60
2022/07/17 00:37:38;;;;;;;5.07;2.20;;;;;;;24.65;45.65;101075.53;5087049;28;20229;-60
2022/07/17 00:40:04;;;;;;;3.73;2.00;;;;;;;24.64;45.89;101077.56;5087723;28;20413;-59
2022/07/17 00:42:29;;;;;;;5.17;2.30;;;;;;;24.64;46.13;101080.47;5088400;28;20632;-59
2022/07/17 00:44:56;;;;;;;7.47;2.67;;;;;;;24.64;45.46;101080.47;5089216;28;20416;-60
2022/07/17 00:47:22;;;;;;;7.23;2.83;;;;;;;24.64;45.93;101074.69;5089108;28;20264;-60
2022/07/17 00:49:47;;;;;;;3.30;2.20;;;;;;;24.63;45.48;101075.94;5089395;28;20964;-60
2022/07/17 00:52:13;;;;;;;4.20;2.30;;;;;;;24.61;45.41;101071.78;5089462;28;20220;-60
2022/07/17 00:54:39;;;;;;;4.33;2.77;;;;;;;24.61;45.56;101075.50;5089779;28;20209;-60
2022/07/17 00:57:10;;;;;;;4.43;2.63;;;;;;;24.60;45.55;101079.63;5089544;28;20182;-60
2022/07/17 00:59:36;;;;;;;3.70;2.30;;;;;;;24.60;45.40;101068.09;5089214;28;20420;-60
2022/07/17 01:02:10;;;;;;;2.93;1.93;;;;;;;24.59;45.37;101065.59;5088263;28;20448;-60
2022/07/17 01:04:36;;;;;;;4.03;2.73;;;;;;;24.56;45.39;101072.97;5087856;28;20215;-60
2022/07/17 01:07:03;;;;;;;3.40;2.10;;;;;;;24.58;45.37;101061.03;5087398;28;20600;-60
2022/07/17 01:09:29;;;;;;;4.50;2.20;;;;;;;24.55;45.23;101058.94;5087498;28;20222;-60
2022/07/17 01:11:57;;;;;;;5.73;2.50;;;;;;;24.55;45.33;101058.94;5086762;28;20461;-60
2022/07/17 01:14:24;;;;;;;4.20;2.00;;;;;;;24.52;44.95;101063.47;5086315;28;20207;-60
2022/07/17 01:16:50;;;;;;;3.60;2.37;;;;;;;24.50;44.92;101063.06;5086534;28;20495;-60
2022/07/17 01:19:15;;;;;;;4.43;2.40;;;;;;;24.51;45.61;101055.19;5088166;28;20444;-60
2022/07/17 01:21:42;;;;;;;4.20;1.97;;;;;;;24.51;45.03;101056.03;5088931;28;20427;-60
2022/07/17 01:24:07;;;;;;;4.07;2.53;;;;;;;24.50;44.95;101062.22;5088865;28;20177;-60
2022/07/17 01:26:33;;;;;;;4.30;2.20;;;;;;;24.46;44.69;101050.66;5088344;28;20452;-60
2022/07/17 01:28:58;;;;;;;4.87;2.37;;;;;;;24.46;44.92;101062.19;5087429;28;20185;-60
2022/07/17 01:31:24;;;;;;;3.63;2.47;;;;;;;24.44;45.09;101064.63;5090311;28;20197;-60
2022/07/17 01:33:49;;;;;;;7.63;2.50;;;;;;;24.46;44.93;101059.31;5075474;28;20661;-60
2022/07/17 01:36:14;;;;;;;3.53;2.20;;;;;;;24.47;45.10;101066.72;5072461;28;20186;-60
2022/07/17 01:38:40;;;;;;;6.03;2.60;;;;;;;24.47;45.06;101063.84;5072625;28;20175;-60
2022/07/17 01:41:06;;;;;;;4.43;2.20;;;;;;;24.47;44.68;101063.00;5072712;28;20190;-60
2022/07/17 01:43:31;;;;;;;3.50;2.00;;;;;;;24.48;44.97;101053.94;5091393;28;20212;-60
2022/07/17 01:45:57;;;;;;;4.90;2.63;;;;;;;24.48;44.75;101058.91;5092360;28;20210;-60
2022/07/17 01:48:26;;;;;;;4.33;1.93;;;;;;;24.47;44.70;101057.22;5092756;28;20206;-60
2022/07/17 01:50:51;;;;;;;4.60;2.47;;;;;;;24.48;45.05;101065.50;5092478;28;20235;-60
2022/07/17 01:53:17;;;;;;;5.63;2.27;;;;;;;24.47;44.79;101063.00;5092104;28;20420;-60
2022/07/17 01:55:42;;;;;;;6.10;2.20;;;;;;;24.45;44.38;101057.66;5092532;28;20198;-60
2022/07/17 01:58:08;;;;;;;2.63;1.97;;;;;;;24.44;44.53;101058.88;5092092;28;20182;-61
2022/07/17 02:00:33;;;;;;;5.53;2.23;;;;;;;24.44;44.50;101058.88;5092490;28;20562;-61
2022/07/17 02:02:58;;;;;;;6.63;2.20;;;;;;;24.45;44.40;101059.69;5092135;28;20278;-61
2022/07/17 02:05:24;;;;;;;3.43;2.13;;;;;;;24.43;44.30;101054.31;5092408;28;20198;-60
2022/07/17 02:07:49;;;;;;;5.03;2.20;;;;;;;24.41;44.19;101053.91;5091927;28;20177;-60
2022/07/17 02:10:15;;;;;;;3.30;2.30;;;;;;;24.41;44.21;101053.91;5092202;28;20175;-60
2022/07/17 02:12:41;;;;;;;6.37;2.03;;;;;;;24.42;44.27;101054.72;5091787;28;20174;-60
2022/07/17 02:15:07;;;;;;;7.47;1.80;;;;;;;24.41;44.19;101038.63;5090902;28;20170;-59
2022/07/17 02:17:32;;;;;;;5.57;2.03;;;;;;;24.42;44.20;101048.94;5090522;28;20434;-61
2022/07/17 02:19:57;;;;;;;7.07;2.07;;;;;;;24.38;43.90;101037.38;5090562;28;20243;-60
2022/07/17 02:22:23;;;;;;;4.07;1.90;;;;;;;24.39;44.02;101029.56;5090707;28;20641;-60
2022/07/17 02:24:48;;;;;;;4.23;1.67;;;;;;;24.39;43.94;101038.22;5090693;28;20175;-60
2022/07/17 02:27:14;;;;;;;3.60;1.90;;;;;;;24.40;44.12;101039.88;5089998;28;20214;-60
2022/07/17 02:29:39;;;;;;;3.97;1.97;;;;;;;24.40;44.19;101034.94;5089839;28;20408;-60
2022/07/17 02:32:05;;;;;;;4.00;1.70;;;;;;;24.38;43.94;101037.38;5087679;28;20645;-60
2022/07/17 02:34:31;;;;;;;2.80;1.67;;;;;;;24.38;43.88;101034.50;5068581;28;20792;-61
2022/07/17 02:36:56;;;;;;;3.60;1.70;;;;;;;24.38;43.92;101025.03;5077474;28;20445;-61
2022/07/17 02:39:22;;;;;;;3.23;1.70;;;;;;;24.38;43.90;101022.16;5089385;28;20519;-60
2022/07/17 02:41:47;;;;;;;4.73;1.90;;;;;;;24.34;43.62;101021.28;5091047;28;20625;-60
2022/07/17 02:44:13;;;;;;;4.13;2.17;;;;;;;24.33;43.69;101020.44;5091552;28;20170;-60
2022/07/17 02:46:38;;;;;;;5.47;2.10;;;;;;;24.32;43.72;101021.69;5091319;28;20256;-60
2022/07/17 02:49:03;;;;;;;3.60;1.93;;;;;;;24.31;43.86;101019.19;5091675;28;20170;-60
2022/07/17 02:51:29;;;;;;;5.87;1.87;;;;;;;24.28;43.61;101017.94;5091599;28;20174;-60
2022/07/17 02:53:54;;;;;;;5.63;2.30;;;;;;;24.28;43.71;101015.06;5091263;28;20527;-60
2022/07/17 02:56:20;;;;;;;4.93;1.73;;;;;;;24.27;44.11;101024.94;5091117;28;20227;-60
2022/07/17 02:58:45;;;;;;;3.13;1.60;;;;;;;24.29;43.74;101015.91;5091447;28;20673;-60
2022/07/17 03:01:10;;;;;;;3.83;1.80;;;;;;;24.26;43.68;101026.19;5091388;28;20205;-60
2022/07/17 03:03:36;;;;;;;8.90;2.47;;;;;;;24.25;43.92;101024.53;5090992;28;20190;-61
2022/07/17 03:06:01;;;;;;;5.40;2.50;;;;;;;24.27;43.87;101013.41;5091019;28;20213;-61
2022/07/17 03:08:27;;;;;;;4.03;2.03;;;;;;;24.28;43.85;101017.94;5090629;28;20234;-60
2022/07/17 03:10:52;;;;;;;3.53;2.10;;;;;;;24.27;43.86;101024.13;5091087;28;20227;-61
2022/07/17 03:13:18;;;;;;;8.30;2.20;;;;;;;24.27;43.96;101010.53;5090899;28;20166;-60
2022/07/17 03:15:43;;;;;;;3.97;1.93;;;;;;;24.26;44.06;101011.75;5091111;28;20649;-60
2022/07/17 03:18:08;;;;;;;6.00;2.23;;;;;;;24.26;43.98;101003.09;5091065;28;20251;-60
2022/07/17 03:20:34;;;;;;;4.93;2.63;;;;;;;24.27;43.91;101006.81;5090883;28;20661;-60
2022/07/17 03:22:59;;;;;;;3.67;2.00;;;;;;;24.26;43.99;101006.00;5091091;28;20174;-60
2022/07/17 03:25:25;;;;;;;5.90;2.20;;;;;;;24.26;43.99;101014.66;5090685;28;20205;-60
2022/07/17 03:27:50;;;;;;;5.17;2.30;;;;;;;24.28;44.16;101008.47;5090230;28;20186;-60
2022/07/17 03:30:15;;;;;;;3.53;2.00;;;;;;;24.27;44.61;101013.41;5090655;28;20174;-60
2022/07/17 03:32:41;;;;;;;4.40;1.97;;;;;;;24.28;44.35;101017.94;5082636;28;20183;-60
2022/07/17 03:35:08;;;;;;;5.10;2.10;;;;;;;24.29;44.49;101028.25;5070225;28;20167;-60
2022/07/17 03:37:33;;;;;;;4.00;1.90;;;;;;;24.30;44.82;101027.06;5085995;28;20203;-60
2022/07/17 03:39:58;;;;;;;3.90;2.20;;;;;;;24.29;44.38;101027.44;5090850;28;20424;-60
2022/07/17 03:42:24;;;;;;;3.47;1.80;;;;;;;24.27;44.12;101018.34;5089748;28;20178;-60
2022/07/17 03:44:49;;;;;;;5.93;2.30;;;;;;;24.26;44.24;101025.34;5087938;28;20185;-60
2022/07/17 03:47:15;;;;;;;5.40;2.10;;;;;;;24.24;44.17;101024.94;5088095;28;20673;-60
2022/07/17 03:49:40;;;;;;;3.83;2.30;;;;;;;24.25;43.88;101027.44;5088052;28;20170;-60
2022/07/17 03:52:05;;;;;;;3.00;1.73;;;;;;;24.26;44.48;101028.25;5088187;28;20174;-60
2022/07/17 03:54:31;;;;;;;5.43;2.00;;;;;;;24.24;44.46;101031.53;5087539;28;20185;-60
2022/07/17 03:56:57;;;;;;;6.10;2.10;;;;;;;24.25;44.58;101027.44;5088331;28;20542;-60
2022/07/17 03:59:22;;;;;;;5.57;2.10;;;;;;;24.26;44.66;101028.25;5089943;28;20215;-60
2022/07/17 04:01:48;;;;;;;4.20;1.70;;;;;;;24.23;44.10;101029.88;5089148;28;20237;-60
2022/07/17 04:04:13;;;;;;;3.60;2.10;;;;;;;24.25;44.39;101041.84;5069661;28;20171;-60
2022/07/17 04:06:39;;;;;;;3.53;1.80;;;;;;;24.25;44.48;101038.13;5069482;28;20211;-60
2022/07/17 04:09:04;;;;;;;6.03;2.00;;;;;;;24.22;44.01;101034.00;5069426;28;20685;-60
2022/07/17 04:11:30;;;;;;;8.73;2.00;;;;;;;24.20;44.27;101045.13;5069452;28;20175;-60
2022/07/17 04:13:55;;;;;;;6.00;1.90;;;;;;;24.19;44.25;101039.75;5069621;28;20175;-60
2022/07/17 04:16:21;;;;;;;3.80;1.77;;;;;;;24.17;44.04;101040.13;5069766;28;20635;-60
2022/07/17 04:18:46;;;;;;;3.43;1.90;;;;;;;24.18;44.23;101036.03;5069193;28;20237;-60
2022/07/17 04:21:13;;;;;;;7.23;2.20;;;;;;;24.15;43.86;101042.63;5069404;28;20604;-60
2022/07/17 04:23:38;;;;;;;5.40;2.00;;;;;;;24.15;44.02;101045.50;5069261;28;20175;-60
2022/07/17 04:26:06;;;;;;;3.17;1.63;;;;;;;24.15;44.07;101045.50;5069101;28;20524;-60
2022/07/17 04:28:31;;;;;;;4.50;1.97;;;;;;;24.15;43.98;101044.66;5088928;28;20182;-60
2022/07/17 04:30:57;;;;;;;3.33;2.03;;;;;;;24.15;44.06;101054.16;5089716;28;20428;-60
2022/07/17 04:33:22;;;;;;;4.53;1.77;;;;;;;24.16;43.89;101047.16;5088900;28;20765;-60
2022/07/17 04:35:48;;;;;;;11.23;2.40;;;;;;;24.16;43.83;101055.81;5088278;28;20196;-60
2022/07/17 04:38:13;;;;;;;6.00;2.27;;;;;;;24.18;43.86;101061.19;5087483;28;20193;-60
2022/07/17 04:40:38;;;;;;;5.07;2.30;;;;;;;24.18;43.59;101050.44;5088794;28;20182;-60
2022/07/17 04:43:04;;;;;;;8.77;2.07;;;;;;;24.18;43.75;101050.44;5089156;28;20166;-60
2022/07/17 04:45:30;;;;;;;6.67;2.60;;;;;;;24.18;43.66;101047.56;5089346;28;20213;-60
2022/07/17 04:47:55;;;;;;;5.63;1.80;;;;;;;24.20;43.58;101058.72;5088634;28;20163;-60
2022/07/17 04:50:21;;;;;;;3.30;1.90;;;;;;;24.23;44.09;101064.50;5089376;28;20174;-60
2022/07/17 04:52:46;;;;;;;4.90;1.83;;;;;;;24.22;43.45;101057.09;5089051;28;20202;-60
2022/07/17 04:55:11;;;;;;;3.87;1.90;;;;;;;24.24;44.01;101062.44;5089463;28;20596;-60
2022/07/17 04:57:37;;;;;;;7.37;2.03;;;;;;;24.27;43.93;101058.75;5089263;28;20173;-60
2022/07/17 05:00:07;;;;;;;5.70;2.27;;;;;;;24.26;43.69;101057.94;5089432;28;20182;-60
2022/07/17 05:02:32;;;;;;;5.53;1.80;;;;;;;24.25;44.26;101061.22;5089577;28;21010;-60
2022/07/17 05:04:58;;;;;;;5.80;2.43;;;;;;;24.25;43.54;101061.22;5089403;28;20416;-59
2022/07/17 05:07:23;;;;;;;7.50;2.07;;;;;;;24.24;43.62;101063.25;5092887;28;20202;-60
2022/07/17 05:09:49;;;;;;;4.20;1.93;;;;;;;24.22;44.19;101068.63;5092842;28;20271;-60
2022/07/17 05:12:14;;;;;;;5.10;1.67;;;;;;;24.19;43.91;101065.72;5093293;28;20181;-60
2022/07/17 05:14:40;;;;;;;3.80;2.13;;;;;;;24.15;44.16;101068.59;5093194;28;20170;-60
2022/07/17 05:17:05;;;;;;;4.40;2.23;;;;;;;24.15;43.80;101068.59;5093253;28;20622;-60
2022/07/17 05:19:31;;;;;;;3.30;1.63;;;;;;;24.15;44.26;101071.47;5093036;28;20170;-60
2022/07/17 05:21:56;;;;;;;4.73;2.27;;;;;;;24.13;44.02;101076.78;5093116;28;20189;-60
2022/07/17 05:24:22;;;;;;;6.17;2.43;;;;;;;24.12;44.87;101072.25;5092842;28;20181;-60
2022/07/17 05:26:47;;;;;;;4.93;2.10;;;;;;;24.12;44.09;101075.13;5092810;28;20209;-60
2022/07/17 05:29:12;;;;;;;5.97;2.20;;;;;;;24.10;43.98;101077.63;5092579;28;20665;-60
2022/07/17 05:31:38;;;;;;;5.10;1.70;;;;;;;24.11;44.44;101073.50;5092902;28;20178;-60
2022/07/17 05:34:03;;;;;;;4.20;2.10;;;;;;;24.12;44.02;101069.38;5092622;28;20637;-60
2022/07/17 05:36:29;;;;;;;3.23;1.70;;;;;;;24.07;43.65;101078.41;5092808;28;20276;-60
2022/07/17 05:38:54;;;;;;;4.43;2.30;;;;;;;24.10;44.04;101071.84;5092686;28;20170;-60
2022/07/17 05:41:20;;;;;;;6.63;1.87;;;;;;;24.09;44.18;101075.94;5092928;28;20671;-60
2022/07/17 05:43:45;;;;;;;3.77;1.97;;;;;;;24.13;44.13;101076.78;5092594;28;20170;-59
2022/07/17 05:46:10;;;;;;;3.13;1.67;;;;;;;24.15;44.29;101076.41;5092236;28;20194;-60
2022/07/17 05:48:36;;;;;;;7.43;2.20;;;;;;;24.02;44.08;101077.94;5092563;28;20166;-60
2022/07/17 05:51:01;;;;;;;4.57;2.03;;;;;;;24.03;44.25;101083.31;5092538;28;20182;-60
2022/07/17 05:53:27;;;;;;;3.77;2.00;;;;;;;24.06;43.85;101073.88;5091849;28;20194;-60
2022/07/17 05:55:52;;;;;;;5.90;2.10;;;;;;;24.06;43.77;101078.78;5089802;28;20177;-60
2022/07/17 05:58:18;;;;;;;4.40;2.00;;;;;;;24.08;43.85;101071.41;5089816;28;20406;-60
2022/07/17 06:00:44;;;;;;;5.73;2.20;;;;;;;24.10;44.04;101079.66;5089179;28;20324;-60
2022/07/17 06:03:09;;;;;;;4.60;1.93;;;;;;;24.12;44.36;101091.63;5088154;28;20205;-60
2022/07/17 06:05:35;;;;;;;3.83;1.77;;;;;;;24.10;43.94;101085.44;5089716;28;20460;-60
2022/07/17 06:08:00;;;;;;;2.90;1.60;;;;;;;24.07;44.21;101089.94;5091490;28;20641;-60
2022/07/17 06:10:26;;;;;;;3.70;2.17;;;;;;;24.09;44.19;101090.34;5091923;28;20175;-60
2022/07/17 06:12:54;;;;;;;3.27;1.83;;;;;;;24.05;44.01;101089.53;5092485;28;20174;-60
2022/07/17 06:15:20;;;;;;;3.67;2.33;;;;;;;24.11;44.07;101095.72;5092101;28;20594;-60
2022/07/17 06:17:46;;;;;;;3.30;1.60;;;;;;;24.10;44.10;101096.97;5091515;28;20506;-60
2022/07/17 06:20:12;;;;;;;7.50;2.50;;;;;;;24.13;43.55;101096.19;5091772;28;20209;-60
2022/07/17 06:22:38;;;;;;;5.07;1.93;;;;;;;24.15;43.99;101091.66;5092000;28;20182;-60
2022/07/17 06:25:03;;;;;;;2.60;1.57;;;;;;;24.18;43.96;101099.50;5091845;28;20476;-60
2022/07/17 06:27:29;;;;;;;6.40;2.27;;;;;;;24.15;44.08;101094.56;5091832;28;20194;-60
2022/07/17 06:29:55;;;;;;;2.70;1.70;;;;;;;24.15;43.74;101097.44;5091618;28;20189;-59
2022/07/17 06:32:20;;;;;;;5.43;1.90;;;;;;;24.06;44.12;101102.72;5087062;28;20190;-60
2022/07/17 06:34:45;;;;;;;5.60;2.07;;;;;;;24.08;44.02;101103.13;5071490;28;20167;-60
2022/07/17 06:37:11;;;;;;;3.30;1.70;;;;;;;24.10;44.16;101114.28;5071289;28;20174;-60
2022/07/17 06:39:36;;;;;;;4.00;2.00;;;;;;;24.10;43.91;101100.69;5090533;28;20232;-60
2022/07/17 06:42:02;;;;;;;5.90;1.57;;;;;;;24.04;44.30;101104.34;5091261;28;20584;-60
2022/07/17 06:44:27;;;;;;;3.60;1.97;;;;;;;24.06;44.22;101104.75;5091666;28;20215;-59
2022/07/17 06:46:53;;;;;;;12.23;2.00;;;;;;;24.03;44.16;101105.56;5091530;28;20202;-60
2022/07/17 06:49:18;;;;;;;5.33;1.93;;;;;;;24.07;44.30;101107.25;5091481;28;20181;-60
2022/07/17 06:51:45;;;;;;;4.03;1.83;;;;;;;24.09;44.37;101109.75;5091474;28;20185;-60
2022/07/17 06:54:12;;;;;;;3.40;1.90;;;;;;;24.07;44.05;101106.41;5091213;28;20174;-60
2022/07/17 06:56:37;;;;;;;3.10;1.67;;;;;;;24.01;43.98;101108.00;5091345;28;20408;-60
2022/07/17 06:59:03;;;;;;;5.70;1.90;;;;;;;24.07;44.20;101104.38;5091222;28;20421;-59
2022/07/17 07:01:28;;;;;;;3.37;1.70;;;;;;;24.12;44.29;101106.03;5090973;28;20151;-60
2022/07/17 07:03:53;;;;;;;3.37;1.70;;;;;;;24.14;43.94;101113.06;5091350;28;20182;-60
2022/07/17 07:06:19;;;;;;;3.20;1.83;;;;;;;24.06;44.19;101111.38;5090740;28;20740;-60
2022/07/17 07:08:44;;;;;;;3.03;1.73;;;;;;;23.98;44.53;101109.63;5090802;28;20234;-60
2022/07/17 07:11:10;;;;;;;5.17;2.20;;;;;;;24.08;44.33;101105.22;5090901;28;20182;-60
2022/07/17 07:13:35;;;;;;;2.93;1.80;;;;;;;24.06;44.16;101116.31;5091042;28;20276;-60
2022/07/17 07:16:02;;;;;;;4.20;2.03;;;;;;;24.07;44.47;101117.94;5090701;28;20166;-60
2022/07/17 07:18:27;;;;;;;7.30;1.73;;;;;;;24.01;44.31;101126.16;5090986;28;20209;-60
2022/07/17 07:20:53;;;;;;;7.40;2.03;;;;;;;24.02;44.74;101124.09;5090802;28;20424;-60
2022/07/17 07:23:18;;;;;;;4.27;2.20;;;;;;;24.03;44.41;101122.88;5090963;28;20239;-60
2022/07/17 07:25:44;;;;;;;8.43;2.67;;;;;;;24.07;44.35;101127.44;5090759;28;20595;-59
2022/07/17 07:28:09;;;;;;;5.07;1.97;;;;;;;24.02;44.51;101118.31;5090446;28;20194;-60
2022/07/17 07:30:35;;;;;;;4.67;2.30;;;;;;;23.98;44.58;101124.06;5090333;28;20553;-60
2022/07/17 07:33:00;;;;;;;3.40;1.87;;;;;;;24.07;44.31;101133.22;5080091;28;20186;-60
2022/07/17 07:35:25;;;;;;;7.47;1.80;;;;;;;24.03;44.59;101123.69;5076090;28;20235;-60
2022/07/17 07:37:51;;;;;;;5.80;2.33;;;;;;;23.94;44.54;101123.19;5088461;28;20711;-60
2022/07/17 07:40:16;;;;;;;4.27;2.03;;;;;;;24.00;44.53;101129.44;5089672;28;20171;-59
2022/07/17 07:42:42;;;;;;;3.57;2.07;;;;;;;23.80;45.19;101119.31;5090476;28;20178;-60
2022/07/17 07:45:08;;;;;;;4.73;2.10;;;;;;;23.90;44.41;101113.72;5089584;28;20182;-60
2022/07/17 07:47:42;;;;;;;3.80;2.00;;;;;;;23.93;44.72;101118.66;5090226;28;20182;-60
2022/07/17 07:50:08;;;;;;;4.80;1.60;;;;;;;23.98;44.55;101117.47;5088842;28;20811;-60
2022/07/17 07:52:34;;;;;;;9.90;2.43;;;;;;;23.95;44.83;101119.09;5088466;28;20413;-60
2022/07/17 07:54:59;;;;;;;5.67;2.10;;;;;;;23.86;44.55;101111.97;5088554;28;20193;-60
2022/07/17 07:57:25;;;;;;;4.10;2.10;;;;;;;23.97;44.82;101122.41;5088617;28;20213;-60
2022/07/17 07:59:50;;;;;;;4.23;1.80;;;;;;;23.93;44.91;101123.63;5088433;28;20572;-60
2022/07/17 08:02:15;;;;;;;5.43;1.87;;;;;;;23.93;45.05;101123.63;5089960;28;20610;-60
2022/07/17 08:04:41;;;;;;;4.30;2.37;;;;;;;24.00;44.52;101133.16;5089778;28;20174;-60
2022/07/17 08:07:06;;;;;;;4.00;1.90;;;;;;;23.96;44.87;101129.41;5087617;28;20216;-60
2022/07/17 08:09:32;;;;;;;4.13;1.70;;;;;;;23.99;44.77;101125.72;5087838;28;20218;-60
2022/07/17 08:11:57;;;;;;;5.10;2.27;;;;;;;24.05;44.49;101131.97;5087989;28;20538;-60
2022/07/17 08:14:22;;;;;;;3.90;2.07;;;;;;;24.01;44.69;101131.94;5088149;28;20549;-60
2022/07/17 08:16:48;;;;;;;5.83;1.87;;;;;;;23.98;44.96;101123.25;5088267;28;20163;-60
2022/07/17 08:19:13;;;;;;;6.00;2.23;;;;;;;23.97;44.82;101122.41;5088519;28;20178;-60
2022/07/17 08:21:39;;;;;;;4.37;1.67;;;;;;;24.00;44.82;101117.91;5087980;28;20595;-60
2022/07/17 08:24:04;;;;;;;5.57;2.13;;;;;;;23.99;44.89;101111.28;5088213;28;20178;-60
2022/07/17 08:26:30;;;;;;;5.13;2.30;;;;;;;23.96;45.07;101114.16;5088284;28;20207;-60
2022/07/17 08:28:55;;;;;;;4.83;1.97;;;;;;;24.05;44.79;101114.66;5089026;28;20596;-61
2022/07/17 08:31:21;;;;;;;5.10;2.00;;;;;;;24.07;44.98;101118.78;5089393;28;20167;-60
2022/07/17 08:33:46;;;;;;;5.10;2.20;;;;;;;24.06;45.12;101122.06;5088406;28;20649;-60
2022/07/17 08:36:11;;;;;;;7.93;1.80;;;;;;;24.01;45.08;101120.41;5087365;28;20171;-60
2022/07/17 08:38:38;;;;;;;5.67;1.70;;;;;;;24.06;44.77;101120.03;5087697;28;20630;-60
2022/07/17 08:41:04;;;;;;;4.07;1.77;;;;;;;24.04;45.14;101133.19;5087151;28;20170;-60
2022/07/17 08:43:29;;;;;;;3.70;2.10;;;;;;;24.07;45.17;101130.34;5087361;28;20416;-60
2022/07/17 08:45:55;;;;;;;8.60;1.80;;;;;;;24.08;45.17;101136.94;5088948;28;20494;-59
2022/07/17 08:48:20;;;;;;;4.63;1.90;;;;;;;24.14;44.88;101123.81;5089029;28;20179;-60
2022/07/17 08:50:46;;;;;;;4.53;2.20;;;;;;;24.17;44.93;101126.72;5087256;28;20190;-60
2022/07/17 08:53:11;;;;;;;4.70;2.10;;;;;;;24.16;45.01;101122.16;5087741;28;20178;-60
2022/07/17 08:55:37;;;;;;;6.40;2.20;;;;;;;24.17;45.42;101118.06;5087173;28;20202;-60
2022/07/17 08:58:04;;;;;;;8.00;2.20;;;;;;;24.18;45.25;101124.66;5087326;28;20174;-60
2022/07/17 09:00:30;;;;;;;8.43;2.50;;;;;;;24.20;45.08;101123.03;5085970;28;20544;-60
2022/07/17 09:03:03;;;;;;;5.17;2.00;;;;;;;24.22;44.93;101117.69;5087591;28;20425;-60
2022/07/17 09:05:35;;;;;;;4.63;1.77;;;;;;;24.23;45.12;101106.97;5089118;28;20174;-60
2022/07/17 09:08:00;;;;;;;4.30;2.20;;;;;;;24.25;45.02;101105.34;5089106;28;20420;-60
2022/07/17 09:10:36;;;;;;;4.10;1.97;;;;;;;24.28;45.20;101107.41;5089204;28;20411;-60
2022/07/17 09:13:01;;;;;;;6.00;2.27;;;;;;;24.29;45.18;101096.72;5089283;28;20255;-60
2022/07/17 09:15:27;;;;;;;3.60;1.97;;;;;;;24.30;44.94;101098.38;5087691;28;20412;-60
2022/07/17 09:17:54;;;;;;;3.90;2.27;;;;;;;24.32;45.27;101102.50;5087220;28;20518;-60
2022/07/17 09:20:20;;;;;;;4.63;2.40;;;;;;;24.35;44.95;101106.66;5087179;28;20931;-60
2022/07/17 09:22:59;;;;;;;3.87;1.80;;;;;;;24.36;44.91;101108.28;5087042;28;20450;-60
2022/07/17 09:25:40;;;;;;;9.43;2.03;;;;;;;24.35;45.10;101098.84;5085675;28;20412;-60
2022/07/17 09:28:06;;;;;;;4.67;1.93;;;;;;;24.38;44.92;101105.84;5087162;28;20432;-60
2022/07/17 09:30:32;;;;;;;4.70;2.27;;;;;;;24.37;44.58;101098.41;5088386;28;20412;-60
2022/07/17 09:32:57;;;;;;;4.37;2.03;;;;;;;24.41;44.54;101093.50;5088843;28;20430;-60
2022/07/17 09:35:23;;;;;;;7.13;3.80;;;;;;;24.42;44.98;101095.13;5089379;28;20254;-60
2022/07/17 09:37:51;;;;;;;8.90;2.10;;;;;;;24.45;44.44;101095.19;5086967;28;20217;-60
2022/07/17 09:43:01;;;;;;;4.10;2.00;;;;;;;24.50;44.82;101088.19;5086686;28;20419;-60
2022/07/17 09:45:27;;;;;;;5.07;2.20;;;;;;;24.54;44.55;101092.75;5086957;28;20424;-60
2022/07/17 09:47:52;;;;;;;3.83;2.00;;;;;;;24.54;44.84;101097.72;5086420;28;20175;-60
2022/07/17 09:50:18;;;;;;;5.47;2.50;;;;;;;24.51;44.58;101093.56;5086718;28;20181;-60
2022/07/17 09:52:43;;;;;;;5.07;2.63;;;;;;;24.50;44.74;101097.69;5090371;28;20622;-60
2022/07/17 09:55:09;;;;;;;5.50;1.90;;;;;;;24.52;44.93;101095.22;5090917;28;20649;-60
2022/07/17 09:57:34;;;;;;;4.30;2.20;;;;;;;24.55;44.75;101091.53;5091192;28;20261;-60
2022/07/17 10:00:11;;;;;;;7.47;2.20;;;;;;;24.56;44.71;101098.13;5092625;28;20274;-60
2022/07/17 10:02:39;;;;;;;6.30;2.60;;;;;;;24.55;44.97;101090.69;5092457;28;20206;-60
2022/07/17 10:05:05;;;;;;;3.50;2.10;;;;;;;24.56;45.02;101090.31;5092560;28;20408;-61
2022/07/17 10:07:30;;;;;;;4.40;2.50;;;;;;;24.65;44.26;101089.97;5089267;28;20499;-60
2022/07/17 10:09:57;;;;;;;3.93;2.20;;;;;;;24.64;44.37;101094.91;5090473;28;20260;-60
2022/07/17 10:12:23;;;;;;;7.20;2.73;;;;;;;24.68;44.18;101080.50;5089299;28;20549;-60
2022/07/17 10:14:48;;;;;;;6.50;2.43;;;;;;;24.70;43.93;101084.66;5090943;28;20423;-60
2022/07/17 10:17:14;;;;;;;3.53;2.00;;;;;;;24.70;43.75;101078.88;5090597;28;20174;-60
2022/07/17 10:19:49;;;;;;;7.03;1.90;;;;;;;24.67;44.20;101082.56;5091196;28;20206;-61
2022/07/17 10:22:14;;;;;;;3.70;2.17;;;;;;;24.70;44.29;101078.88;5091961;28;20181;-61
2022/07/17 10:24:46;;;;;;;5.90;2.40;;;;;;;24.71;44.07;101080.53;5090366;28;20432;-60
2022/07/17 10:27:25;;;;;;;4.10;2.13;;;;;;;24.71;43.86;101066.09;5091892;28;20206;-60
2022/07/17 10:30:00;;;;;;;5.17;2.33;;;;;;;24.72;43.63;101070.63;5091934;28;20409;-60
2022/07/17 10:32:26;;;;;;;4.20;2.27;;;;;;;24.74;43.85;101070.22;5091225;28;20428;-61
2022/07/17 10:35:01;;;;;;;7.97;2.17;;;;;;;24.74;43.53;101065.25;5090213;28;20828;-60
2022/07/17 10:37:34;;;;;;;4.63;2.30;;;;;;;24.73;43.54;101069.38;5090257;28;20177;-60
2022/07/17 10:40:04;;;;;;;3.63;1.80;;;;;;;24.78;42.79;101065.28;5088854;28;20878;-60
2022/07/17 10:42:41;;;;;;;8.17;2.27;;;;;;;24.81;43.50;101068.19;5089825;28;20417;-60
2022/07/17 10:45:09;;;;;;;5.20;2.27;;;;;;;24.82;43.32;101069.00;5089822;28;20456;-60
2022/07/17 10:48:01;;;;;;;5.80;2.57;;;;;;;24.81;42.88;101062.41;5090286;28;20555;-60
2022/07/17 10:50:38;;;;;;;4.97;2.13;;;;;;;24.85;43.04;101057.50;5091341;28;20487;-60
2022/07/17 10:53:11;;;;;;;6.53;2.43;;;;;;;24.82;42.84;101060.34;5091489;28;20420;-60
2022/07/17 10:55:44;;;;;;;4.37;1.90;;;;;;;24.83;42.93;101070.69;5091498;28;20409;-60
2022/07/17 10:58:23;;;;;;;3.57;2.10;;;;;;;24.89;42.21;101055.41;5091616;28;20416;-60
2022/07/17 11:01:15;;;;;;;5.23;1.77;;;;;;;24.89;42.23;101054.63;5091574;28;20420;-60
2022/07/17 11:03:49;;;;;;;7.97;1.73;;;;;;;24.87;42.23;101057.91;5091564;28;20429;-60
2022/07/17 11:06:18;;;;;;;4.10;1.70;;;;;;;24.85;42.72;101060.38;5091216;28;20937;-60
2022/07/17 11:08:50;;;;;;;4.00;1.80;;;;;;;24.96;41.36;101060.41;5090864;28;21131;-60
2022/07/17 11:11:17;;;;;;;5.50;1.97;;;;;;;24.93;42.11;101059.16;5091200;28;20431;-60
2022/07/17 11:13:43;;;;;;;4.70;1.80;;;;;;;24.91;42.13;101058.75;5089746;28;20419;-60
2022/07/17 11:16:08;;;;;;;3.90;2.00;;;;;;;24.96;41.39;101055.47;5089658;28;20429;-60
2022/07/17 11:18:34;;;;;;;4.10;1.83;;;;;;;24.96;41.52;101054.63;5090891;28;20186;-60
2022/07/17 11:21:00;;;;;;;3.97;2.30;;;;;;;24.98;41.45;101053.00;5090970;28;20231;-60
2022/07/17 11:23:27;;;;;;;5.53;1.63;;;;;;;25.03;41.39;101046.00;5090771;28;20202;-60